sensor_id;sensor_type;location;lat;lon;timestamp;temperature;humidity
12303;DHT22;6214;48.012;7.862;2022-07-29T00:02:24;23.10;99.90
12303;DHT22;6214;48.012;7.862;2022-07-29T00:04:52;23.00;99.90
12303;DHT22;6214;48.012;7.862;2022-07-29T00:07:19;23.00;99.90
12303;DHT22;6214;48.012;7.862;2022-07-29T00:09:46;23.00;99.90
12303;DHT22;6214;48.012;7.862;2022-07-29T00:12:22;23.00;99.90
12303;DHT22;6214;48.012;7.862;2022-07-29T00:14:53;23.00;99.90
12303;DHT22;6214;48.012;7.862;2022-07-29T00:17:21;23.00;99.90
12303;DHT22;6214;48.012;7.862;2022-07-29T00:19:48;23.10;99.90
12303;DHT22;6214;48.012;7.862;2022-07-29T00:22:15;23.20;99.90
12303;DHT22;6214;48.012;7.862;2022-07-29T00:24:41;23.30;99.90
12303;DHT22;6214;48.012;7.862;2022-07-29T00:27:08;23.20;99.90
12303;DHT22;6214;48.012;7.862;2022-07-29T00:29:35;23.20;99.90
12303;DHT22;6214;48.012;7.862;2022-07-29T00:32:02;23.10;99.90
12303;DHT22;6214;48.012;7.862;2022-07-29T00:34:30;23.20;99.90
12303;DHT22;6214;48.012;7.862;2022-07-29T00:37:15;23.30;99.90
12303;DHT22;6214;48.012;7.862;2022-07-29T00:39:42;23.20;99.90
12303;DHT22;6214;48.012;7.862;2022-07-29T00:42:09;22.80;99.90
12303;DHT22;6214;48.012;7.862;2022-07-29T00:44:38;22.80;99.90
12303;DHT22;6214;48.012;7.862;2022-07-29T00:47:05;22.80;99.90
12303;DHT22;6214;48.012;7.862;2022-07-29T00:49:33;22.70;99.90
12303;DHT22;6214;48.012;7.862;2022-07-29T00:52:02;22.80;99.90
12303;DHT22;6214;48.012;7.862;2022-07-29T00:54:29;22.80;99.90
12303;DHT22;6214;48.012;7.862;2022-07-29T00:57:00;22.70;99.90
12303;DHT22;6214;48.012;7.862;2022-07-29T00:59:27;22.80;99.90
12303;DHT22;6214;48.012;7.862;2022-07-29T01:02:04;22.60;99.90
12303;DHT22;6214;48.012;7.862;2022-07-29T01:04:31;22.50;99.90
12303;DHT22;6214;48.012;7.862;2022-07-29T01:07:01;22.50;99.90
12303;DHT22;6214;48.012;7.862;2022-07-29T01:09:28;22.50;99.90
12303;DHT22;6214;48.012;7.862;2022-07-29T01:12:17;22.30;99.90
12303;DHT22;6214;48.012;7.862;2022-07-29T01:14:45;22.10;99.90
12303;DHT22;6214;48.012;7.862;2022-07-29T01:30:29;22.10;99.90
12303;DHT22;6214;48.012;7.862;2022-07-29T01:33:02;22.20;99.90
12303;DHT22;6214;48.012;7.862;2022-07-29T01:35:36;22.30;99.90
12303;DHT22;6214;48.012;7.862;2022-07-29T01:38:20;22.40;99.90
12303;DHT22;6214;48.012;7.862;2022-07-29T01:40:54;22.40;99.90
12303;DHT22;6214;48.012;7.862;2022-07-29T01:43:29;22.40;99.90
12303;DHT22;6214;48.012;7.862;2022-07-29T01:46:04;22.50;99.90
12303;DHT22;6214;48.012;7.862;2022-07-29T01:48:49;22.40;99.90
12303;DHT22;6214;48.012;7.862;2022-07-29T01:51:31;22.30;99.90
12303;DHT22;6214;48.012;7.862;2022-07-29T01:54:04;22.40;99.90
12303;DHT22;6214;48.012;7.862;2022-07-29T01:56:35;22.40;99.90
12303;DHT22;6214;48.012;7.862;2022-07-29T01:59:04;22.40;99.90
12303;DHT22;6214;48.012;7.862;2022-07-29T02:01:33;22.40;99.90
12303;DHT22;6214;48.012;7.862;2022-07-29T02:04:07;22.50;99.90
12303;DHT22;6214;48.012;7.862;2022-07-29T02:06:38;22.60;99.90
12303;DHT22;6214;48.012;7.862;2022-07-29T02:09:06;22.60;99.90
12303;DHT22;6214;48.012;7.862;2022-07-29T02:11:35;22.70;99.90
12303;DHT22;6214;48.012;7.862;2022-07-29T02:14:04;22.70;99.90
12303;DHT22;6214;48.012;7.862;2022-07-29T02:16:33;22.70;99.90
12303;DHT22;6214;48.012;7.862;2022-07-29T02:19:02;22.80;99.90
12303;DHT22;6214;48.012;7.862;2022-07-29T02:21:30;22.60;99.90
12303;DHT22;6214;48.012;7.862;2022-07-29T02:24:01;22.60;99.90
12303;DHT22;6214;48.012;7.862;2022-07-29T02:26:29;22.30;99.90
12303;DHT22;6214;48.012;7.862;2022-07-29T02:28:57;22.20;99.90
12303;DHT22;6214;48.012;7.862;2022-07-29T02:31:28;22.10;99.90
12303;DHT22;6214;48.012;7.862;2022-07-29T02:33:57;22.10;99.90
12303;DHT22;6214;48.012;7.862;2022-07-29T02:36:24;22.10;99.90
12303;DHT22;6214;48.012;7.862;2022-07-29T02:38:53;22.20;99.90
12303;DHT22;6214;48.012;7.862;2022-07-29T02:41:28;22.20;99.90
12303;DHT22;6214;48.012;7.862;2022-07-29T02:44:05;22.20;99.90
12303;DHT22;6214;48.012;7.862;2022-07-29T02:46:35;21.90;99.90
12303;DHT22;6214;48.012;7.862;2022-07-29T02:51:58;21.90;99.90
12303;DHT22;6214;48.012;7.862;2022-07-29T02:54:51;22.00;99.90
12303;DHT22;6214;48.012;7.862;2022-07-29T02:57:29;22.00;99.90
12303;DHT22;6214;48.012;7.862;2022-07-29T02:59:59;21.90;99.90
12303;DHT22;6214;48.012;7.862;2022-07-29T03:02:35;21.90;99.90
12303;DHT22;6214;48.012;7.862;2022-07-29T03:05:04;21.90;99.90
12303;DHT22;6214;48.012;7.862;2022-07-29T03:07:34;21.90;99.90
12303;DHT22;6214;48.012;7.862;2022-07-29T03:10:03;21.90;99.90
12303;DHT22;6214;48.012;7.862;2022-07-29T03:12:36;21.80;99.90
12303;DHT22;6214;48.012;7.862;2022-07-29T03:15:04;21.80;99.90
12303;DHT22;6214;48.012;7.862;2022-07-29T03:17:32;21.90;99.90
12303;DHT22;6214;48.012;7.862;2022-07-29T03:20:01;21.90;99.90
12303;DHT22;6214;48.012;7.862;2022-07-29T03:22:28;22.00;99.90
12303;DHT22;6214;48.012;7.862;2022-07-29T03:24:55;21.80;99.90
12303;DHT22;6214;48.012;7.862;2022-07-29T03:27:21;21.60;99.90
12303;DHT22;6214;48.012;7.862;2022-07-29T03:29:48;21.50;99.90
12303;DHT22;6214;48.012;7.862;2022-07-29T03:32:16;21.40;99.90
12303;DHT22;6214;48.012;7.862;2022-07-29T03:34:50;21.30;99.90
12303;DHT22;6214;48.012;7.862;2022-07-29T03:37:17;21.10;99.90
12303;DHT22;6214;48.012;7.862;2022-07-29T03:39:45;21.00;99.90
12303;DHT22;6214;48.012;7.862;2022-07-29T03:42:15;21.10;99.90
12303;DHT22;6214;48.012;7.862;2022-07-29T03:44:45;21.00;99.90
12303;DHT22;6214;48.012;7.862;2022-07-29T03:47:13;21.00;99.90
12303;DHT22;6214;48.012;7.862;2022-07-29T03:49:42;21.00;99.90
12303;DHT22;6214;48.012;7.862;2022-07-29T03:52:11;20.90;99.90
12303;DHT22;6214;48.012;7.862;2022-07-29T03:54:38;20.80;99.90
12303;DHT22;6214;48.012;7.862;2022-07-29T03:57:06;20.70;99.90
12303;DHT22;6214;48.012;7.862;2022-07-29T03:59:33;20.90;99.90
12303;DHT22;6214;48.012;7.862;2022-07-29T04:02:02;20.80;99.90
12303;DHT22;6214;48.012;7.862;2022-07-29T04:04:33;20.90;99.90
12303;DHT22;6214;48.012;7.862;2022-07-29T04:07:00;20.80;99.90
12303;DHT22;6214;48.012;7.862;2022-07-29T04:09:27;20.70;99.90
12303;DHT22;6214;48.012;7.862;2022-07-29T04:11:54;20.80;99.90
12303;DHT22;6214;48.012;7.862;2022-07-29T04:14:30;20.90;99.90
12303;DHT22;6214;48.012;7.862;2022-07-29T04:16:57;20.80;99.90
12303;DHT22;6214;48.012;7.862;2022-07-29T04:19:24;20.80;99.90
12303;DHT22;6214;48.012;7.862;2022-07-29T04:21:51;20.80;99.90
12303;DHT22;6214;48.012;7.862;2022-07-29T04:24:18;21.00;99.90
12303;DHT22;6214;48.012;7.862;2022-07-29T04:26:47;20.90;99.90
12303;DHT22;6214;48.012;7.862;2022-07-29T04:29:14;20.90;99.90
12303;DHT22;6214;48.012;7.862;2022-07-29T04:31:42;20.90;99.90
12303;DHT22;6214;48.012;7.862;2022-07-29T04:34:11;20.90;99.90
12303;DHT22;6214;48.012;7.862;2022-07-29T04:36:38;20.90;99.90
12303;DHT22;6214;48.012;7.862;2022-07-29T04:39:05;21.00;99.90
12303;DHT22;6214;48.012;7.862;2022-07-29T04:41:32;21.00;99.90
12303;DHT22;6214;48.012;7.862;2022-07-29T04:44:00;21.00;99.90
12303;DHT22;6214;48.012;7.862;2022-07-29T04:46:33;21.10;99.90
12303;DHT22;6214;48.012;7.862;2022-07-29T04:49:00;21.10;99.90
12303;DHT22;6214;48.012;7.862;2022-07-29T04:51:27;21.10;99.90
12303;DHT22;6214;48.012;7.862;2022-07-29T04:53:54;21.20;99.90
12303;DHT22;6214;48.012;7.862;2022-07-29T04:56:21;21.20;99.90
12303;DHT22;6214;48.012;7.862;2022-07-29T04:58:47;21.20;99.90
12303;DHT22;6214;48.012;7.862;2022-07-29T05:01:15;21.30;99.90
12303;DHT22;6214;48.012;7.862;2022-07-29T05:03:41;21.20;99.90
12303;DHT22;6214;48.012;7.862;2022-07-29T05:06:08;21.30;99.90
12303;DHT22;6214;48.012;7.862;2022-07-29T05:08:35;21.40;99.90
12303;DHT22;6214;48.012;7.862;2022-07-29T05:11:02;21.30;99.90
12303;DHT22;6214;48.012;7.862;2022-07-29T05:13:39;21.40;99.90
12303;DHT22;6214;48.012;7.862;2022-07-29T05:16:11;21.60;99.90
12303;DHT22;6214;48.012;7.862;2022-07-29T05:18:40;21.70;99.90
12303;DHT22;6214;48.012;7.862;2022-07-29T05:21:06;21.70;99.90
12303;DHT22;6214;48.012;7.862;2022-07-29T05:23:33;21.90;99.90
12303;DHT22;6214;48.012;7.862;2022-07-29T05:26:00;21.90;99.90
12303;DHT22;6214;48.012;7.862;2022-07-29T05:28:32;21.90;99.90
12303;DHT22;6214;48.012;7.862;2022-07-29T05:30:59;22.00;99.90
12303;DHT22;6214;48.012;7.862;2022-07-29T05:33:26;21.90;99.90
12303;DHT22;6214;48.012;7.862;2022-07-29T05:36:06;22.00;99.90
12303;DHT22;6214;48.012;7.862;2022-07-29T05:38:37;21.80;99.90
12303;DHT22;6214;48.012;7.862;2022-07-29T05:41:05;21.90;99.90
12303;DHT22;6214;48.012;7.862;2022-07-29T05:43:36;22.00;99.90
12303;DHT22;6214;48.012;7.862;2022-07-29T05:46:16;22.00;99.90
12303;DHT22;6214;48.012;7.862;2022-07-29T05:48:43;20.80;99.90
12303;DHT22;6214;48.012;7.862;2022-07-29T05:51:10;22.40;99.90
12303;DHT22;6214;48.012;7.862;2022-07-29T05:53:37;22.50;99.90
12303;DHT22;6214;48.012;7.862;2022-07-29T05:56:04;22.70;99.90
12303;DHT22;6214;48.012;7.862;2022-07-29T05:58:32;22.70;99.90
12303;DHT22;6214;48.012;7.862;2022-07-29T06:00:59;22.90;99.90
12303;DHT22;6214;48.012;7.862;2022-07-29T06:03:27;23.10;99.90
12303;DHT22;6214;48.012;7.862;2022-07-29T06:05:54;23.00;99.90
12303;DHT22;6214;48.012;7.862;2022-07-29T06:08:21;23.00;99.90
12303;DHT22;6214;48.012;7.862;2022-07-29T06:10:48;23.00;99.90
12303;DHT22;6214;48.012;7.862;2022-07-29T06:13:15;22.90;99.90
12303;DHT22;6214;48.012;7.862;2022-07-29T06:15:43;22.90;99.90
12303;DHT22;6214;48.012;7.862;2022-07-29T06:18:12;23.00;99.90
12303;DHT22;6214;48.012;7.862;2022-07-29T06:20:39;23.00;99.90
12303;DHT22;6214;48.012;7.862;2022-07-29T06:23:06;23.20;99.90
12303;DHT22;6214;48.012;7.862;2022-07-29T06:25:34;23.30;99.90
12303;DHT22;6214;48.012;7.862;2022-07-29T06:28:04;23.50;99.90
12303;DHT22;6214;48.012;7.862;2022-07-29T06:30:31;23.80;99.90
12303;DHT22;6214;48.012;7.862;2022-07-29T06:32:58;24.30;99.90
12303;DHT22;6214;48.012;7.862;2022-07-29T06:35:25;25.30;99.90
12303;DHT22;6214;48.012;7.862;2022-07-29T06:38:07;24.90;99.90
12303;DHT22;6214;48.012;7.862;2022-07-29T06:40:54;25.10;99.90
12303;DHT22;6214;48.012;7.862;2022-07-29T06:43:31;24.90;99.90
12303;DHT22;6214;48.012;7.862;2022-07-29T06:46:02;24.80;99.90
12303;DHT22;6214;48.012;7.862;2022-07-29T06:48:30;24.60;99.90
12303;DHT22;6214;48.012;7.862;2022-07-29T06:50:57;24.50;99.90
12303;DHT22;6214;48.012;7.862;2022-07-29T06:53:24;24.40;99.90
12303;DHT22;6214;48.012;7.862;2022-07-29T06:55:51;24.40;99.90
12303;DHT22;6214;48.012;7.862;2022-07-29T06:58:18;24.40;99.90
12303;DHT22;6214;48.012;7.862;2022-07-29T07:00:47;24.40;99.90
12303;DHT22;6214;48.012;7.862;2022-07-29T07:03:15;24.80;99.90
12303;DHT22;6214;48.012;7.862;2022-07-29T07:05:43;25.40;99.90
12303;DHT22;6214;48.012;7.862;2022-07-29T07:08:11;25.70;99.90
12303;DHT22;6214;48.012;7.862;2022-07-29T07:10:38;25.70;99.90
12303;DHT22;6214;48.012;7.862;2022-07-29T07:13:05;25.70;99.90
12303;DHT22;6214;48.012;7.862;2022-07-29T07:15:33;25.80;99.90
12303;DHT22;6214;48.012;7.862;2022-07-29T07:18:06;25.90;99.90
12303;DHT22;6214;48.012;7.862;2022-07-29T07:20:34;25.70;99.90
12303;DHT22;6214;48.012;7.862;2022-07-29T07:23:01;25.60;99.90
12303;DHT22;6214;48.012;7.862;2022-07-29T07:25:28;25.50;99.90
12303;DHT22;6214;48.012;7.862;2022-07-29T07:27:55;25.70;99.90
12303;DHT22;6214;48.012;7.862;2022-07-29T07:30:22;25.80;99.90
12303;DHT22;6214;48.012;7.862;2022-07-29T07:32:49;25.80;99.90
12303;DHT22;6214;48.012;7.862;2022-07-29T07:35:16;25.80;99.90
12303;DHT22;6214;48.012;7.862;2022-07-29T07:37:43;25.90;99.90
12303;DHT22;6214;48.012;7.862;2022-07-29T07:40:10;25.90;99.90
12303;DHT22;6214;48.012;7.862;2022-07-29T07:42:44;25.90;99.90
12303;DHT22;6214;48.012;7.862;2022-07-29T07:45:11;25.70;99.90
12303;DHT22;6214;48.012;7.862;2022-07-29T07:47:42;25.70;99.90
12303;DHT22;6214;48.012;7.862;2022-07-29T07:50:10;25.80;99.90
12303;DHT22;6214;48.012;7.862;2022-07-29T07:52:52;25.80;99.90
12303;DHT22;6214;48.012;7.862;2022-07-29T07:55:19;25.90;99.90
12303;DHT22;6214;48.012;7.862;2022-07-29T07:57:47;25.70;99.90
12303;DHT22;6214;48.012;7.862;2022-07-29T08:00:15;25.60;99.90
12303;DHT22;6214;48.012;7.862;2022-07-29T08:02:43;25.60;99.90
12303;DHT22;6214;48.012;7.862;2022-07-29T08:05:12;25.60;99.90
12303;DHT22;6214;48.012;7.862;2022-07-29T08:07:45;25.70;99.90
12303;DHT22;6214;48.012;7.862;2022-07-29T08:10:13;25.70;99.90
12303;DHT22;6214;48.012;7.862;2022-07-29T08:12:41;25.80;99.90
12303;DHT22;6214;48.012;7.862;2022-07-29T08:15:08;25.80;99.90
12303;DHT22;6214;48.012;7.862;2022-07-29T08:17:35;25.90;99.90
12303;DHT22;6214;48.012;7.862;2022-07-29T08:20:03;25.80;99.90
12303;DHT22;6214;48.012;7.862;2022-07-29T08:22:30;25.80;99.90
12303;DHT22;6214;48.012;7.862;2022-07-29T08:24:56;25.80;99.90
12303;DHT22;6214;48.012;7.862;2022-07-29T08:27:23;25.90;99.90
12303;DHT22;6214;48.012;7.862;2022-07-29T08:30:09;25.90;99.90
12303;DHT22;6214;48.012;7.862;2022-07-29T08:32:37;25.90;99.90
12303;DHT22;6214;48.012;7.862;2022-07-29T08:35:22;26.20;99.90
12303;DHT22;6214;48.012;7.862;2022-07-29T08:37:50;26.20;99.90
12303;DHT22;6214;48.012;7.862;2022-07-29T08:40:17;26.30;99.90
12303;DHT22;6214;48.012;7.862;2022-07-29T08:42:44;26.40;99.90
12303;DHT22;6214;48.012;7.862;2022-07-29T08:45:11;26.40;99.90
12303;DHT22;6214;48.012;7.862;2022-07-29T08:47:39;26.70;99.90
12303;DHT22;6214;48.012;7.862;2022-07-29T08:50:07;26.80;99.90
12303;DHT22;6214;48.012;7.862;2022-07-29T08:52:37;27.00;99.90
12303;DHT22;6214;48.012;7.862;2022-07-29T08:55:06;26.90;99.90
12303;DHT22;6214;48.012;7.862;2022-07-29T08:57:35;26.90;99.90
12303;DHT22;6214;48.012;7.862;2022-07-29T09:00:06;26.70;99.90
12303;DHT22;6214;48.012;7.862;2022-07-29T09:02:45;26.70;99.90
12303;DHT22;6214;48.012;7.862;2022-07-29T09:05:14;26.70;99.90
12303;DHT22;6214;48.012;7.862;2022-07-29T09:07:42;26.60;99.90
12303;DHT22;6214;48.012;7.862;2022-07-29T09:10:10;26.80;99.90
12303;DHT22;6214;48.012;7.862;2022-07-29T09:12:37;26.90;99.90
12303;DHT22;6214;48.012;7.862;2022-07-29T09:15:05;26.80;99.90
12303;DHT22;6214;48.012;7.862;2022-07-29T09:17:45;26.70;99.90
12303;DHT22;6214;48.012;7.862;2022-07-29T09:20:20;26.60;99.90
12303;DHT22;6214;48.012;7.862;2022-07-29T09:22:49;26.50;99.90
12303;DHT22;6214;48.012;7.862;2022-07-29T09:25:35;26.50;99.90
12303;DHT22;6214;48.012;7.862;2022-07-29T09:28:13;26.50;99.90
12303;DHT22;6214;48.012;7.862;2022-07-29T09:30:55;26.40;99.90
12303;DHT22;6214;48.012;7.862;2022-07-29T09:33:23;26.50;99.90
12303;DHT22;6214;48.012;7.862;2022-07-29T09:36:03;26.50;99.90
12303;DHT22;6214;48.012;7.862;2022-07-29T09:38:32;26.60;99.90
12303;DHT22;6214;48.012;7.862;2022-07-29T09:41:01;26.80;99.90
12303;DHT22;6214;48.012;7.862;2022-07-29T09:43:32;26.70;99.90
12303;DHT22;6214;48.012;7.862;2022-07-29T09:46:17;26.70;99.90
12303;DHT22;6214;48.012;7.862;2022-07-29T09:48:44;26.70;99.90
12303;DHT22;6214;48.012;7.862;2022-07-29T09:51:18;26.80;99.90
12303;DHT22;6214;48.012;7.862;2022-07-29T09:53:53;27.00;99.90
12303;DHT22;6214;48.012;7.862;2022-07-29T09:56:41;27.00;99.90
12303;DHT22;6214;48.012;7.862;2022-07-29T09:59:09;27.10;99.90
12303;DHT22;6214;48.012;7.862;2022-07-29T10:01:37;27.20;99.90
12303;DHT22;6214;48.012;7.862;2022-07-29T10:04:04;27.30;99.90
12303;DHT22;6214;48.012;7.862;2022-07-29T10:06:31;27.20;99.90
12303;DHT22;6214;48.012;7.862;2022-07-29T10:09:11;27.30;99.90
12303;DHT22;6214;48.012;7.862;2022-07-29T10:11:38;27.30;99.90
12303;DHT22;6214;48.012;7.862;2022-07-29T10:14:16;27.40;99.90
12303;DHT22;6214;48.012;7.862;2022-07-29T10:16:43;27.20;99.90
12303;DHT22;6214;48.012;7.862;2022-07-29T10:19:10;27.30;99.90
12303;DHT22;6214;48.012;7.862;2022-07-29T10:21:37;27.40;99.90
12303;DHT22;6214;48.012;7.862;2022-07-29T10:24:06;27.40;99.90
12303;DHT22;6214;48.012;7.862;2022-07-29T10:26:41;27.40;99.90
12303;DHT22;6214;48.012;7.862;2022-07-29T10:29:08;27.50;99.90
12303;DHT22;6214;48.012;7.862;2022-07-29T10:31:49;27.50;99.90
12303;DHT22;6214;48.012;7.862;2022-07-29T10:43:31;27.70;99.90
12303;DHT22;6214;48.012;7.862;2022-07-29T10:46:04;27.70;99.90
12303;DHT22;6214;48.012;7.862;2022-07-29T10:48:34;27.80;99.90
12303;DHT22;6214;48.012;7.862;2022-07-29T10:51:05;27.80;99.90
12303;DHT22;6214;48.012;7.862;2022-07-29T10:53:50;27.90;99.90
12303;DHT22;6214;48.012;7.862;2022-07-29T10:56:29;27.80;99.90
12303;DHT22;6214;48.012;7.862;2022-07-29T11:01:49;27.70;99.90
12303;DHT22;6214;48.012;7.862;2022-07-29T11:07:10;28.00;99.90
12303;DHT22;6214;48.012;7.862;2022-07-29T11:09:37;28.10;99.90
12303;DHT22;6214;48.012;7.862;2022-07-29T11:15:07;27.90;99.90
12303;DHT22;6214;48.012;7.862;2022-07-29T11:20:33;29.20;99.90
12303;DHT22;6214;48.012;7.862;2022-07-29T11:26:17;28.20;99.90
12303;DHT22;6214;48.012;7.862;2022-07-29T11:31:43;28.20;99.90
12303;DHT22;6214;48.012;7.862;2022-07-29T11:34:25;28.10;99.90
12303;DHT22;6214;48.012;7.862;2022-07-29T11:45:05;28.00;99.90
12303;DHT22;6214;48.012;7.862;2022-07-29T11:47:55;28.00;99.90
12303;DHT22;6214;48.012;7.862;2022-07-29T11:50:36;28.00;99.90
12303;DHT22;6214;48.012;7.862;2022-07-29T11:53:11;28.00;99.90
12303;DHT22;6214;48.012;7.862;2022-07-29T11:55:40;28.00;99.90
12303;DHT22;6214;48.012;7.862;2022-07-29T11:58:22;27.90;99.90
12303;DHT22;6214;48.012;7.862;2022-07-29T12:00:50;28.00;99.90
12303;DHT22;6214;48.012;7.862;2022-07-29T12:03:24;28.00;99.90
12303;DHT22;6214;48.012;7.862;2022-07-29T12:06:03;28.10;99.90
12303;DHT22;6214;48.012;7.862;2022-07-29T12:08:40;28.10;99.90
12303;DHT22;6214;48.012;7.862;2022-07-29T12:11:15;28.00;99.90
12303;DHT22;6214;48.012;7.862;2022-07-29T12:13:46;28.00;99.90
12303;DHT22;6214;48.012;7.862;2022-07-29T12:16:15;27.90;99.90
12303;DHT22;6214;48.012;7.862;2022-07-29T12:18:59;27.90;99.90
12303;DHT22;6214;48.012;7.862;2022-07-29T12:21:50;27.80;99.90
12303;DHT22;6214;48.012;7.862;2022-07-29T12:24:23;27.70;99.90
12303;DHT22;6214;48.012;7.862;2022-07-29T12:26:55;27.80;99.90
12303;DHT22;6214;48.012;7.862;2022-07-29T12:29:22;27.80;99.90
12303;DHT22;6214;48.012;7.862;2022-07-29T12:32:00;27.90;99.90
12303;DHT22;6214;48.012;7.862;2022-07-29T12:34:28;27.90;99.90
12303;DHT22;6214;48.012;7.862;2022-07-29T12:36:56;27.90;99.90
12303;DHT22;6214;48.012;7.862;2022-07-29T12:39:23;27.90;99.90
12303;DHT22;6214;48.012;7.862;2022-07-29T12:41:53;27.90;99.90
12303;DHT22;6214;48.012;7.862;2022-07-29T12:44:50;28.00;99.90
12303;DHT22;6214;48.012;7.862;2022-07-29T12:47:19;28.00;99.90
12303;DHT22;6214;48.012;7.862;2022-07-29T12:49:47;28.00;99.90
12303;DHT22;6214;48.012;7.862;2022-07-29T12:52:31;28.10;99.90
12303;DHT22;6214;48.012;7.862;2022-07-29T12:54:59;28.20;99.90
12303;DHT22;6214;48.012;7.862;2022-07-29T12:57:26;28.10;99.90
12303;DHT22;6214;48.012;7.862;2022-07-29T13:00:07;28.00;99.90
12303;DHT22;6214;48.012;7.862;2022-07-29T13:02:38;27.90;99.90
12303;DHT22;6214;48.012;7.862;2022-07-29T13:05:06;28.00;99.90
12303;DHT22;6214;48.012;7.862;2022-07-29T13:07:35;28.00;99.90
12303;DHT22;6214;48.012;7.862;2022-07-29T13:10:21;27.90;99.90
12303;DHT22;6214;48.012;7.862;2022-07-29T13:15:29;27.90;99.90
12303;DHT22;6214;48.012;7.862;2022-07-29T13:17:56;28.00;99.90
12303;DHT22;6214;48.012;7.862;2022-07-29T13:20:26;28.10;99.90
12303;DHT22;6214;48.012;7.862;2022-07-29T13:22:58;28.00;99.90
12303;DHT22;6214;48.012;7.862;2022-07-29T13:25:29;28.10;99.90
12303;DHT22;6214;48.012;7.862;2022-07-29T13:27:59;28.10;99.90
12303;DHT22;6214;48.012;7.862;2022-07-29T13:30:25;28.20;99.90
12303;DHT22;6214;48.012;7.862;2022-07-29T13:32:53;28.20;99.90
12303;DHT22;6214;48.012;7.862;2022-07-29T13:35:20;28.20;99.90
12303;DHT22;6214;48.012;7.862;2022-07-29T13:37:47;28.10;99.90
12303;DHT22;6214;48.012;7.862;2022-07-29T13:40:17;28.10;99.90
12303;DHT22;6214;48.012;7.862;2022-07-29T13:42:44;28.10;99.90
12303;DHT22;6214;48.012;7.862;2022-07-29T13:45:12;28.20;99.90
12303;DHT22;6214;48.012;7.862;2022-07-29T13:47:39;28.20;99.90
12303;DHT22;6214;48.012;7.862;2022-07-29T13:50:14;28.10;99.90
12303;DHT22;6214;48.012;7.862;2022-07-29T13:52:41;28.20;99.90
12303;DHT22;6214;48.012;7.862;2022-07-29T13:55:08;28.30;99.90
12303;DHT22;6214;48.012;7.862;2022-07-29T13:57:35;28.10;99.90
12303;DHT22;6214;48.012;7.862;2022-07-29T14:00:03;28.10;99.90
12303;DHT22;6214;48.012;7.862;2022-07-29T14:02:30;28.10;99.90
12303;DHT22;6214;48.012;7.862;2022-07-29T14:04:56;28.00;99.90
12303;DHT22;6214;48.012;7.862;2022-07-29T14:07:23;28.00;99.90
12303;DHT22;6214;48.012;7.862;2022-07-29T14:09:51;27.90;99.90
12303;DHT22;6214;48.012;7.862;2022-07-29T14:12:17;27.90;99.90
12303;DHT22;6214;48.012;7.862;2022-07-29T14:14:45;27.80;99.90
12303;DHT22;6214;48.012;7.862;2022-07-29T14:17:13;27.80;99.90
12303;DHT22;6214;48.012;7.862;2022-07-29T14:19:40;27.90;99.90
12303;DHT22;6214;48.012;7.862;2022-07-29T14:22:08;27.70;99.90
12303;DHT22;6214;48.012;7.862;2022-07-29T14:24:36;27.70;99.90
12303;DHT22;6214;48.012;7.862;2022-07-29T14:27:08;27.70;99.90
12303;DHT22;6214;48.012;7.862;2022-07-29T14:29:35;27.60;99.90
12303;DHT22;6214;48.012;7.862;2022-07-29T14:32:07;27.60;99.90
12303;DHT22;6214;48.012;7.862;2022-07-29T14:34:37;27.50;99.90
12303;DHT22;6214;48.012;7.862;2022-07-29T14:37:04;28.50;99.90
12303;DHT22;6214;48.012;7.862;2022-07-29T14:39:41;27.60;99.90
12303;DHT22;6214;48.012;7.862;2022-07-29T14:42:09;27.60;99.90
12303;DHT22;6214;48.012;7.862;2022-07-29T14:44:39;27.50;99.90
12303;DHT22;6214;48.012;7.862;2022-07-29T14:47:07;27.40;99.90
12303;DHT22;6214;48.012;7.862;2022-07-29T14:49:34;27.40;99.90
12303;DHT22;6214;48.012;7.862;2022-07-29T14:52:01;27.60;99.90
12303;DHT22;6214;48.012;7.862;2022-07-29T14:54:28;27.70;99.90
12303;DHT22;6214;48.012;7.862;2022-07-29T14:56:55;27.80;99.90
12303;DHT22;6214;48.012;7.862;2022-07-29T14:59:24;27.70;99.90
12303;DHT22;6214;48.012;7.862;2022-07-29T15:01:51;27.70;99.90
12303;DHT22;6214;48.012;7.862;2022-07-29T15:04:19;27.60;99.90
12303;DHT22;6214;48.012;7.862;2022-07-29T15:06:45;27.60;99.90
12303;DHT22;6214;48.012;7.862;2022-07-29T15:09:13;27.70;99.90
12303;DHT22;6214;48.012;7.862;2022-07-29T15:11:40;27.70;99.90
12303;DHT22;6214;48.012;7.862;2022-07-29T15:14:07;27.70;99.90
12303;DHT22;6214;48.012;7.862;2022-07-29T15:16:36;27.70;99.90
12303;DHT22;6214;48.012;7.862;2022-07-29T15:19:04;27.80;99.90
12303;DHT22;6214;48.012;7.862;2022-07-29T15:21:31;27.70;99.90
12303;DHT22;6214;48.012;7.862;2022-07-29T15:23:58;27.70;99.90
12303;DHT22;6214;48.012;7.862;2022-07-29T15:26:25;27.70;99.30
12303;DHT22;6214;48.012;7.862;2022-07-29T15:28:52;27.80;98.30
12303;DHT22;6214;48.012;7.862;2022-07-29T15:31:19;27.90;98.60
12303;DHT22;6214;48.012;7.862;2022-07-29T15:33:46;27.90;98.60
12303;DHT22;6214;48.012;7.862;2022-07-29T15:36:14;27.90;98.50
12303;DHT22;6214;48.012;7.862;2022-07-29T15:39:00;27.90;98.80
12303;DHT22;6214;48.012;7.862;2022-07-29T15:41:27;28.00;98.60
12303;DHT22;6214;48.012;7.862;2022-07-29T15:43:55;28.10;98.40
12303;DHT22;6214;48.012;7.862;2022-07-29T15:46:22;28.10;98.20
12303;DHT22;6214;48.012;7.862;2022-07-29T15:49:08;28.10;98.10
12303;DHT22;6214;48.012;7.862;2022-07-29T15:51:35;28.20;98.10
12303;DHT22;6214;48.012;7.862;2022-07-29T15:54:03;28.40;98.00
12303;DHT22;6214;48.012;7.862;2022-07-29T15:56:30;28.40;96.90
12303;DHT22;6214;48.012;7.862;2022-07-29T15:58:58;28.50;96.40
12303;DHT22;6214;48.012;7.862;2022-07-29T16:01:26;28.40;96.50
12303;DHT22;6214;48.012;7.862;2022-07-29T16:03:53;28.50;95.90
12303;DHT22;6214;48.012;7.862;2022-07-29T16:06:21;28.40;95.50
12303;DHT22;6214;48.012;7.862;2022-07-29T16:08:48;28.40;95.40
12303;DHT22;6214;48.012;7.862;2022-07-29T16:11:15;28.50;95.50
12303;DHT22;6214;48.012;7.862;2022-07-29T16:13:41;28.50;95.40
12303;DHT22;6214;48.012;7.862;2022-07-29T16:16:09;28.50;95.00
12303;DHT22;6214;48.012;7.862;2022-07-29T16:18:36;28.50;94.70
12303;DHT22;6214;48.012;7.862;2022-07-29T16:21:03;28.50;94.80
12303;DHT22;6214;48.012;7.862;2022-07-29T16:23:30;28.60;95.60
12303;DHT22;6214;48.012;7.862;2022-07-29T16:25:57;28.70;95.10
12303;DHT22;6214;48.012;7.862;2022-07-29T16:28:27;28.60;95.10
12303;DHT22;6214;48.012;7.862;2022-07-29T16:30:55;28.50;95.30
12303;DHT22;6214;48.012;7.862;2022-07-29T16:33:23;28.40;94.60
12303;DHT22;6214;48.012;7.862;2022-07-29T16:35:50;28.30;94.80
12303;DHT22;6214;48.012;7.862;2022-07-29T16:38:17;28.20;94.70
12303;DHT22;6214;48.012;7.862;2022-07-29T16:40:44;28.20;94.90
12303;DHT22;6214;48.012;7.862;2022-07-29T16:43:11;28.10;94.70
12303;DHT22;6214;48.012;7.862;2022-07-29T16:45:39;28.10;94.30
12303;DHT22;6214;48.012;7.862;2022-07-29T16:48:15;28.10;94.30
12303;DHT22;6214;48.012;7.862;2022-07-29T16:50:44;28.20;94.40
12303;DHT22;6214;48.012;7.862;2022-07-29T16:53:11;28.30;93.90
12303;DHT22;6214;48.012;7.862;2022-07-29T16:55:38;28.30;93.30
12303;DHT22;6214;48.012;7.862;2022-07-29T16:58:08;28.40;92.70